createdAt,value
2023-06-27T00:00:13.122Z,18.83
2023-06-27T00:01:12.952Z,18.81
2023-06-27T00:02:13.015Z,18.81
2023-06-27T00:03:19.380Z,18.81
2023-06-27T00:04:12.913Z,18.84
2023-06-27T00:05:12.862Z,18.84
2023-06-27T00:06:13.044Z,18.81
2023-06-27T00:07:13.176Z,18.83
2023-06-27T00:08:12.908Z,18.86
2023-06-27T00:09:19.129Z,18.89
2023-06-27T00:10:12.924Z,18.92
2023-06-27T00:11:12.831Z,18.96
2023-06-27T00:12:12.945Z,18.99
2023-06-27T00:13:13.872Z,18.98
2023-06-27T00:14:19.452Z,18.95
2023-06-27T00:15:12.745Z,18.89
2023-06-27T00:16:12.760Z,18.84
2023-06-27T00:17:12.876Z,18.81
2023-06-27T00:18:12.747Z,18.78
2023-06-27T00:19:19.288Z,18.75
2023-06-27T00:20:12.863Z,18.71
2023-06-27T00:21:13.361Z,18.65
2023-06-27T00:22:12.829Z,18.59
2023-06-27T00:23:12.709Z,18.55
2023-06-27T00:24:18.906Z,18.53
2023-06-27T00:25:12.686Z,18.52
2023-06-27T00:26:12.622Z,18.53
2023-06-27T00:27:12.685Z,18.49
2023-06-27T00:28:12.591Z,18.45
2023-06-27T00:29:12.594Z,18.44
2023-06-27T00:30:18.902Z,18.43
2023-06-27T00:31:12.632Z,18.43
2023-06-27T00:32:12.564Z,18.43
2023-06-27T00:33:12.527Z,18.38
2023-06-27T00:34:12.539Z,18.35
2023-06-27T00:35:18.832Z,18.33
2023-06-27T00:36:12.480Z,18.31
2023-06-27T00:37:12.505Z,18.31
2023-06-27T00:38:12.481Z,18.34
2023-06-27T00:39:12.621Z,18.29
2023-06-27T00:40:12.485Z,18.23
2023-06-27T00:41:18.793Z,18.22
2023-06-27T00:42:12.457Z,18.20
2023-06-27T00:43:12.458Z,18.20
2023-06-27T00:44:12.472Z,18.20
2023-06-27T00:45:12.369Z,18.22
2023-06-27T00:46:12.355Z,18.22
2023-06-27T00:47:18.717Z,18.26
2023-06-27T00:48:12.326Z,18.28
2023-06-27T00:49:12.391Z,18.33
2023-06-27T00:50:14.043Z,18.29
2023-06-27T00:51:12.508Z,18.25
2023-06-27T00:52:18.580Z,18.23
2023-06-27T00:53:12.281Z,18.23
2023-06-27T00:54:12.310Z,18.23
2023-06-27T00:55:12.278Z,18.23
2023-06-27T00:56:12.301Z,18.23
2023-06-27T00:57:13.272Z,18.13
2023-06-27T00:58:18.528Z,18.10
2023-06-27T00:59:12.309Z,18.05
2023-06-27T01:00:12.304Z,18.04
2023-06-27T01:01:12.290Z,18.03
2023-06-27T01:02:12.214Z,18.03
2023-06-27T01:03:18.629Z,18.04
2023-06-27T01:04:13.243Z,18.07
2023-06-27T01:05:12.226Z,18.05
2023-06-27T01:06:12.230Z,18.01
2023-06-27T01:07:12.342Z,17.94
2023-06-27T01:08:18.343Z,17.90
2023-06-27T01:09:12.147Z,17.90
2023-06-27T01:10:12.138Z,17.87
2023-06-27T01:11:12.086Z,17.87
2023-06-27T01:12:12.772Z,17.90
2023-06-27T01:13:12.082Z,17.90
2023-06-27T01:14:18.392Z,17.92
2023-06-27T01:15:12.105Z,17.94
2023-06-27T01:16:12.157Z,17.92
2023-06-27T01:17:12.103Z,17.90
2023-06-27T01:18:12.045Z,17.89
2023-06-27T01:19:12.012Z,17.89
2023-06-27T01:20:18.382Z,17.87
2023-06-27T01:21:11.926Z,17.85
2023-06-27T01:22:12.017Z,17.79
2023-06-27T01:23:11.908Z,17.72
2023-06-27T01:24:12.164Z,17.71
2023-06-27T01:25:18.225Z,17.68
2023-06-27T01:26:12.028Z,17.65
2023-06-27T01:27:11.929Z,17.65
2023-06-27T01:28:11.903Z,17.63
2023-06-27T01:29:11.963Z,17.64
2023-06-27T01:30:11.904Z,17.70
2023-06-27T01:31:18.180Z,17.71
2023-06-27T01:32:11.805Z,17.71
2023-06-27T01:33:11.958Z,17.72
2023-06-27T01:34:12.804Z,17.76
2023-06-27T01:35:11.883Z,17.79
2023-06-27T01:36:11.812Z,17.85
2023-06-27T01:37:18.086Z,17.90
2023-06-27T01:38:11.720Z,17.89
2023-06-27T01:39:11.774Z,17.87
2023-06-27T01:40:11.865Z,17.85
2023-06-27T01:41:11.766Z,17.82
2023-06-27T01:42:11.840Z,17.79
2023-06-27T01:43:18.060Z,17.76
2023-06-27T01:44:11.716Z,17.70
2023-06-27T01:45:11.795Z,17.68
2023-06-27T01:46:11.819Z,17.65
2023-06-27T01:47:12.324Z,17.63
2023-06-27T01:48:18.059Z,17.63
2023-06-27T01:49:11.632Z,17.59
2023-06-27T01:50:11.669Z,17.54
2023-06-27T01:51:11.556Z,17.48
2023-06-27T01:52:11.526Z,17.45
2023-06-27T01:53:11.545Z,17.46
2023-06-27T01:54:17.973Z,17.46
2023-06-27T01:55:11.556Z,17.45
2023-06-27T01:56:12.147Z,17.41
2023-06-27T01:57:11.610Z,17.38
2023-06-27T01:58:11.455Z,17.34
2023-06-27T01:59:11.478Z,17.30
2023-06-27T02:00:17.818Z,17.23
2023-06-27T02:01:11.648Z,17.19
2023-06-27T02:02:11.531Z,17.14
2023-06-27T02:03:11.517Z,17.06
2023-06-27T02:04:11.505Z,17.05
2023-06-27T02:05:17.761Z,17.01
2023-06-27T02:06:11.469Z,16.97
2023-06-27T02:07:11.625Z,16.94
2023-06-27T02:08:11.426Z,16.91
2023-06-27T02:09:11.423Z,16.89
2023-06-27T02:10:11.328Z,16.86
2023-06-27T02:11:17.692Z,16.81
2023-06-27T02:12:11.268Z,16.79
2023-06-27T02:13:11.449Z,16.79
2023-06-27T02:14:11.261Z,16.83
2023-06-27T02:15:11.418Z,16.83
2023-06-27T02:16:11.201Z,16.83
2023-06-27T02:17:17.660Z,16.84
2023-06-27T02:18:11.253Z,16.84
2023-06-27T02:19:11.210Z,16.84
2023-06-27T02:20:11.189Z,16.84
2023-06-27T02:21:11.351Z,16.83
2023-06-27T02:22:11.139Z,16.81
2023-06-27T02:23:17.598Z,16.79
2023-06-27T02:24:11.183Z,16.76
2023-06-27T02:25:11.141Z,16.75
2023-06-27T02:26:11.168Z,16.76
2023-06-27T02:27:11.352Z,16.79
2023-06-27T02:28:11.269Z,16.79
2023-06-27T02:29:17.434Z,16.76
2023-06-27T02:30:11.132Z,16.74
2023-06-27T02:31:11.173Z,16.74
2023-06-27T02:32:11.050Z,16.74
2023-06-27T02:33:11.043Z,16.74
2023-06-27T02:34:18.459Z,16.66
2023-06-27T02:35:11.082Z,16.61
2023-06-27T02:36:11.342Z,16.54
2023-06-27T02:37:11.043Z,16.53
2023-06-27T02:38:11.121Z,16.53
2023-06-27T02:39:17.252Z,16.54
2023-06-27T02:40:11.193Z,16.51
2023-06-27T02:41:11.273Z,16.49
2023-06-27T02:42:11.908Z,16.46
2023-06-27T02:43:11.059Z,16.43
2023-06-27T02:44:17.323Z,16.42
2023-06-27T02:45:10.909Z,16.36
2023-06-27T02:46:11.089Z,16.31
2023-06-27T02:47:10.860Z,16.26
2023-06-27T02:48:10.830Z,16.23
2023-06-27T02:49:17.239Z,16.17
2023-06-27T02:50:10.858Z,16.17
2023-06-27T02:51:10.944Z,16.17
2023-06-27T02:52:10.874Z,16.20
2023-06-27T02:53:10.945Z,16.17
2023-06-27T02:54:10.761Z,16.16
2023-06-27T02:56:09.891Z,16.09
2023-06-27T02:57:08.864Z,16.09
2023-06-27T02:58:08.847Z,16.13
2023-06-27T02:59:08.899Z,16.15
2023-06-27T03:00:08.812Z,16.12
2023-06-27T03:01:15.093Z,16.08
2023-06-27T03:02:08.836Z,16.02
2023-06-27T03:03:09.865Z,16.02
2023-06-27T03:04:19.317Z,16.05
2023-06-27T03:05:10.242Z,16.05
2023-06-27T03:06:14.983Z,16.08
2023-06-27T03:07:08.783Z,16.08
2023-06-27T03:08:08.689Z,16.10
2023-06-27T03:09:08.678Z,16.12
2023-06-27T03:10:08.770Z,16.09
2023-06-27T03:11:14.932Z,16.10
2023-06-27T03:12:08.659Z,16.09
2023-06-27T03:13:08.640Z,16.13
2023-06-27T03:14:08.644Z,16.17
2023-06-27T03:15:08.677Z,16.20
2023-06-27T03:16:08.633Z,16.21
2023-06-27T03:17:15.794Z,16.17
2023-06-27T03:18:08.571Z,16.16
2023-06-27T03:19:08.532Z,16.15
2023-06-27T03:20:08.598Z,16.16
2023-06-27T03:21:08.566Z,16.17
2023-06-27T03:22:14.765Z,16.17
2023-06-27T03:23:09.433Z,16.15
2023-06-27T03:24:08.492Z,16.15
2023-06-27T03:25:11.538Z,16.13
2023-06-27T03:26:08.487Z,16.13
2023-06-27T03:27:08.497Z,16.08
2023-06-27T03:28:15.604Z,16.04
2023-06-27T03:29:08.455Z,16.01
2023-06-27T03:30:09.196Z,15.95
2023-06-27T03:31:09.049Z,15.90
2023-06-27T03:32:09.367Z,15.88
2023-06-27T03:33:08.520Z,15.84
2023-06-27T03:34:15.577Z,15.82
2023-06-27T03:35:09.316Z,15.82
2023-06-27T03:36:10.369Z,15.83
2023-06-27T03:37:08.369Z,15.83
2023-06-27T03:38:09.251Z,15.84
2023-06-27T03:39:08.947Z,15.83
2023-06-27T03:40:15.364Z,15.82
2023-06-27T03:41:09.242Z,15.83
2023-06-27T03:42:08.347Z,15.86
2023-06-27T03:43:08.283Z,15.86
2023-06-27T03:44:09.248Z,15.90
2023-06-27T03:45:09.184Z,15.91
2023-06-27T03:46:15.448Z,15.92
2023-06-27T03:47:09.153Z,15.90
2023-06-27T03:48:08.264Z,15.84
2023-06-27T03:49:09.152Z,15.82
2023-06-27T03:50:09.112Z,15.80
2023-06-27T03:51:09.108Z,15.80
2023-06-27T03:52:15.335Z,15.82
2023-06-27T03:53:09.159Z,15.83
2023-06-27T03:54:09.035Z,15.84
2023-06-27T03:55:09.036Z,15.90
2023-06-27T03:56:09.035Z,15.92
2023-06-27T03:57:09.025Z,15.97
2023-06-27T03:58:15.354Z,15.98
2023-06-27T03:59:09.035Z,16.00
2023-06-27T04:00:09.014Z,15.94
2023-06-27T04:01:08.955Z,15.84
2023-06-27T04:02:08.958Z,15.80
2023-06-27T04:03:15.310Z,15.79
2023-06-27T04:04:09.922Z,15.80
2023-06-27T04:05:08.183Z,15.79
2023-06-27T04:06:08.912Z,15.82
2023-06-27T04:07:08.947Z,15.88
2023-06-27T04:08:07.958Z,15.91
2023-06-27T04:09:15.114Z,15.92
2023-06-27T04:10:08.879Z,15.92
2023-06-27T04:11:08.827Z,15.92
2023-06-27T04:12:08.828Z,15.91
2023-06-27T04:13:07.853Z,15.84
2023-06-27T04:14:15.039Z,15.82
2023-06-27T04:15:08.848Z,15.77
2023-06-27T04:16:08.779Z,15.73
2023-06-27T04:17:08.784Z,15.70
2023-06-27T04:18:07.860Z,15.72
2023-06-27T04:19:08.758Z,15.70
2023-06-27T04:20:14.990Z,15.65
2023-06-27T04:21:08.691Z,15.67
2023-06-27T04:22:08.725Z,15.65
2023-06-27T04:23:07.736Z,15.67
2023-06-27T04:24:08.675Z,15.70
2023-06-27T04:25:07.683Z,15.72
2023-06-27T04:26:14.003Z,15.75
2023-06-27T04:27:08.632Z,15.75
2023-06-27T04:28:08.603Z,15.76
2023-06-27T04:29:08.599Z,15.79
2023-06-27T04:30:08.575Z,15.82
2023-06-27T04:31:07.677Z,15.80
2023-06-27T04:32:14.793Z,15.82
2023-06-27T04:33:08.579Z,15.82
2023-06-27T04:34:08.550Z,15.82
2023-06-27T04:35:08.516Z,15.80
2023-06-27T04:36:08.561Z,15.80
2023-06-27T04:37:08.518Z,15.83
2023-06-27T04:38:14.767Z,15.82
2023-06-27T04:39:08.467Z,15.82
2023-06-27T04:40:08.471Z,15.84
2023-06-27T04:41:07.540Z,15.84
2023-06-27T04:42:08.447Z,15.86
2023-06-27T04:43:08.395Z,15.84
2023-06-27T04:44:14.660Z,15.86
2023-06-27T04:45:08.377Z,15.88
2023-06-27T04:46:07.491Z,15.92
2023-06-27T04:47:08.478Z,15.91
2023-06-27T04:48:08.394Z,15.92
2023-06-27T04:49:08.388Z,15.92
2023-06-27T04:50:14.631Z,15.90
2023-06-27T04:51:07.332Z,15.88
2023-06-27T04:52:07.355Z,15.86
2023-06-27T04:53:08.334Z,15.88
2023-06-27T04:54:09.246Z,15.86
2023-06-27T04:55:08.270Z,15.86
2023-06-27T04:56:14.530Z,15.84
2023-06-27T04:57:13.076Z,15.88
2023-06-27T04:58:08.770Z,15.90
2023-06-27T04:59:07.359Z,15.90
2023-06-27T05:00:08.174Z,15.91
2023-06-27T05:01:14.532Z,15.92
2023-06-27T05:02:08.162Z,15.91
2023-06-27T05:03:08.159Z,15.91
2023-06-27T05:04:08.203Z,15.94
2023-06-27T05:05:08.158Z,15.94
2023-06-27T05:06:14.349Z,15.97
2023-06-27T05:07:08.142Z,16.00
2023-06-27T05:08:08.100Z,16.02
2023-06-27T05:09:08.100Z,16.01
2023-06-27T05:10:08.078Z,16.00
2023-06-27T05:11:08.029Z,16.00
2023-06-27T05:12:14.330Z,16.02
2023-06-27T05:13:08.030Z,16.02
2023-06-27T05:14:08.025Z,16.04
2023-06-27T05:15:08.080Z,16.08
2023-06-27T05:16:07.978Z,16.09
2023-06-27T05:17:07.978Z,16.10
2023-06-27T05:18:14.217Z,16.09
2023-06-27T05:19:07.957Z,16.12
2023-06-27T05:20:07.908Z,16.15
2023-06-27T05:21:08.028Z,16.20
2023-06-27T05:22:07.907Z,16.21
2023-06-27T05:23:07.892Z,16.23
2023-06-27T05:24:14.125Z,16.24
2023-06-27T05:25:06.927Z,16.29
2023-06-27T05:26:07.847Z,16.32
2023-06-27T05:27:07.822Z,16.32
2023-06-27T05:28:07.901Z,16.35
2023-06-27T05:29:14.035Z,16.41
2023-06-27T05:30:07.815Z,16.43
2023-06-27T05:31:07.869Z,16.47
2023-06-27T05:32:07.755Z,16.49
2023-06-27T05:33:07.948Z,16.50
2023-06-27T05:34:14.038Z,16.54
2023-06-27T05:35:07.736Z,16.57
2023-06-27T05:36:07.966Z,16.61
2023-06-27T05:37:07.699Z,16.65
2023-06-27T05:38:07.717Z,16.68
2023-06-27T05:39:07.691Z,16.74
2023-06-27T05:40:13.897Z,16.74
2023-06-27T05:41:07.742Z,16.74
2023-06-27T05:42:07.652Z,16.76
2023-06-27T05:43:07.638Z,16.75
2023-06-27T05:44:07.614Z,16.69
2023-06-27T05:45:07.611Z,16.68
2023-06-27T05:46:13.844Z,16.68
2023-06-27T05:47:07.539Z,16.69
2023-06-27T05:48:07.683Z,16.69
2023-06-27T05:49:07.557Z,16.68
2023-06-27T05:50:07.528Z,16.66
2023-06-27T05:51:07.566Z,16.65
2023-06-27T05:52:13.793Z,16.66
2023-06-27T05:53:07.475Z,16.72
2023-06-27T05:54:07.481Z,16.76
2023-06-27T05:55:07.495Z,16.78
2023-06-27T05:56:07.605Z,16.81
2023-06-27T05:57:07.442Z,16.84
2023-06-27T05:58:13.754Z,16.87
2023-06-27T05:59:07.427Z,16.91
2023-06-27T06:00:07.441Z,16.96
2023-06-27T06:01:07.432Z,17.02
2023-06-27T06:02:07.438Z,17.05
2023-06-27T06:03:07.358Z,17.06
2023-06-27T06:04:13.667Z,17.12
2023-06-27T06:05:07.324Z,17.15
2023-06-27T06:06:07.357Z,17.19
2023-06-27T06:07:07.419Z,17.22
2023-06-27T06:08:07.317Z,17.29
2023-06-27T06:09:13.566Z,17.33
2023-06-27T06:10:07.294Z,17.34
2023-06-27T06:11:07.278Z,17.36
2023-06-27T06:12:07.277Z,17.36
2023-06-27T06:13:07.222Z,17.33
2023-06-27T06:14:13.497Z,17.33
2023-06-27T06:15:07.274Z,17.34
2023-06-27T06:16:07.189Z,17.34
2023-06-27T06:17:07.206Z,17.29
2023-06-27T06:18:07.218Z,17.22
2023-06-27T06:19:07.219Z,17.15
2023-06-27T06:20:13.396Z,17.12
2023-06-27T06:21:07.168Z,17.15
2023-06-27T06:22:07.121Z,17.20
2023-06-27T06:23:07.095Z,17.24
2023-06-27T06:24:07.120Z,17.27
2023-06-27T06:25:06.116Z,17.30
2023-06-27T06:26:13.279Z,17.30
2023-06-27T06:27:07.070Z,17.30
2023-06-27T06:28:07.054Z,17.31
2023-06-27T06:29:07.031Z,17.31
2023-06-27T06:30:07.005Z,17.33
2023-06-27T06:31:13.330Z,17.33
2023-06-27T06:32:06.078Z,17.38
2023-06-27T06:33:06.896Z,17.41
2023-06-27T06:34:06.988Z,17.42
2023-06-27T06:35:06.970Z,17.42
2023-06-27T06:36:06.970Z,17.44
2023-06-27T06:37:13.208Z,17.42
2023-06-27T06:38:09.951Z,17.39
2023-06-27T06:39:06.918Z,17.39
2023-06-27T06:40:06.861Z,17.41
2023-06-27T06:41:07.014Z,17.46
2023-06-27T06:42:13.166Z,17.54
2023-06-27T06:43:06.840Z,17.63
2023-06-27T06:44:06.861Z,17.64
2023-06-27T06:45:06.853Z,17.70
2023-06-27T06:46:06.822Z,17.78
2023-06-27T06:47:06.807Z,17.83
2023-06-27T06:48:13.071Z,17.89
2023-06-27T06:49:07.013Z,17.94
2023-06-27T06:50:06.770Z,17.98
2023-06-27T06:51:05.786Z,17.98
2023-06-27T06:52:06.727Z,17.94
2023-06-27T06:53:12.952Z,17.83
2023-06-27T06:54:06.752Z,17.78
2023-06-27T06:55:06.672Z,17.76
2023-06-27T06:56:06.719Z,17.70
2023-06-27T06:57:08.141Z,17.64
2023-06-27T06:58:12.893Z,17.67
2023-06-27T06:59:06.640Z,17.72
2023-06-27T07:00:06.632Z,17.80
2023-06-27T07:01:06.637Z,17.90
2023-06-27T07:02:06.592Z,18.01
2023-06-27T07:03:06.837Z,18.11
2023-06-27T07:04:12.867Z,18.23
2023-06-27T07:05:06.596Z,18.33
2023-06-27T07:06:06.572Z,18.37
2023-06-27T07:07:06.572Z,18.34
2023-06-27T07:08:06.521Z,18.29
2023-06-27T07:09:06.491Z,18.25
2023-06-27T07:10:11.788Z,18.15
2023-06-27T07:11:06.490Z,18.00
2023-06-27T07:12:06.470Z,17.90
2023-06-27T07:13:06.496Z,17.87
2023-06-27T07:14:05.506Z,17.89
2023-06-27T07:15:06.468Z,17.95
2023-06-27T07:16:12.659Z,18.05
2023-06-27T07:17:06.433Z,18.16
2023-06-27T07:18:06.438Z,18.25
2023-06-27T07:19:06.397Z,18.37
2023-06-27T07:20:06.422Z,18.45
2023-06-27T07:21:06.433Z,18.52
2023-06-27T07:22:11.617Z,18.60
2023-06-27T07:23:06.338Z,18.62
2023-06-27T07:24:06.329Z,18.62
2023-06-27T07:25:05.360Z,18.59
2023-06-27T07:26:05.357Z,18.63
2023-06-27T07:27:06.323Z,18.70
2023-06-27T07:28:12.562Z,18.71
2023-06-27T07:29:05.316Z,18.71
2023-06-27T07:30:06.258Z,18.74
2023-06-27T07:31:06.265Z,18.71
2023-06-27T07:32:06.225Z,18.78
2023-06-27T07:33:06.258Z,18.90
2023-06-27T07:34:12.509Z,18.98
2023-06-27T07:35:06.152Z,19.04
2023-06-27T07:36:06.273Z,19.09
2023-06-27T07:37:06.172Z,19.11
2023-06-27T07:38:06.233Z,19.09
2023-06-27T07:39:12.372Z,19.04
2023-06-27T07:40:06.124Z,19.00
2023-06-27T07:41:05.209Z,18.96
2023-06-27T07:42:06.083Z,18.90
2023-06-27T07:43:06.044Z,18.86
2023-06-27T07:44:12.377Z,18.86
2023-06-27T07:45:06.148Z,18.83
2023-06-27T07:46:07.692Z,18.80
2023-06-27T07:47:06.064Z,18.80
2023-06-27T07:48:06.093Z,18.81
2023-06-27T07:49:05.987Z,18.78
2023-06-27T07:50:12.269Z,18.75
2023-06-27T07:51:05.962Z,18.71
2023-06-27T07:52:05.014Z,18.77
2023-06-27T07:53:05.035Z,18.90
2023-06-27T07:54:04.997Z,19.04
2023-06-27T07:55:04.986Z,19.18
2023-06-27T07:56:11.213Z,19.36
2023-06-27T07:57:04.932Z,19.51
2023-06-27T07:58:04.928Z,19.58
2023-06-27T07:59:05.914Z,19.59
2023-06-27T08:00:04.887Z,19.56
2023-06-27T08:01:05.847Z,19.55
2023-06-27T08:02:12.131Z,19.62
2023-06-27T08:03:06.002Z,19.67
2023-06-27T08:04:05.887Z,19.55
2023-06-27T08:05:05.818Z,19.48
2023-06-27T08:06:06.019Z,19.40
2023-06-27T08:07:05.790Z,19.41
2023-06-27T08:08:11.997Z,19.34
2023-06-27T08:09:04.761Z,19.44
2023-06-27T08:10:05.716Z,19.51
2023-06-27T08:11:05.758Z,19.62
2023-06-27T08:12:05.704Z,19.73
2023-06-27T08:13:11.978Z,19.84
2023-06-27T08:14:05.710Z,19.96
2023-06-27T08:15:05.655Z,20.10
2023-06-27T08:16:05.628Z,20.26
2023-06-27T08:17:04.727Z,20.40
2023-06-27T08:18:11.979Z,20.50
2023-06-27T08:19:05.590Z,20.58
2023-06-27T08:20:05.579Z,20.59
2023-06-27T08:21:05.684Z,20.47
2023-06-27T08:22:05.619Z,20.25
2023-06-27T08:23:05.567Z,20.09
2023-06-27T08:24:11.748Z,19.95
2023-06-27T08:25:04.566Z,19.84
2023-06-27T08:26:05.583Z,19.73
2023-06-27T08:27:04.582Z,19.63
2023-06-27T08:28:06.483Z,19.67
2023-06-27T08:29:05.469Z,19.67
2023-06-27T08:30:11.786Z,19.73
2023-06-27T08:31:05.643Z,19.79
2023-06-27T08:32:05.465Z,19.92
2023-06-27T08:33:05.543Z,20.10
2023-06-27T08:34:05.411Z,20.22
2023-06-27T08:35:11.644Z,20.36
2023-06-27T08:36:05.486Z,20.48
2023-06-27T08:37:05.505Z,20.62
2023-06-27T08:38:05.352Z,20.70
2023-06-27T08:39:05.349Z,20.69
2023-06-27T08:40:05.398Z,20.59
2023-06-27T08:41:11.606Z,20.58
2023-06-27T08:42:05.322Z,20.58
2023-06-27T08:43:05.326Z,20.56
2023-06-27T08:44:05.302Z,20.48
2023-06-27T08:45:05.286Z,20.31
2023-06-27T08:46:05.228Z,20.13
2023-06-27T08:47:10.551Z,19.89
2023-06-27T08:48:04.367Z,19.79
2023-06-27T08:49:05.532Z,19.64
2023-06-27T08:50:05.374Z,19.55
2023-06-27T08:51:05.218Z,19.49
2023-06-27T08:52:11.447Z,19.44
2023-06-27T08:53:05.179Z,19.47
2023-06-27T08:54:05.170Z,19.52
2023-06-27T08:56:01.654Z,19.82
2023-06-27T08:57:09.781Z,20.02
2023-06-27T08:58:01.608Z,20.26
2023-06-27T08:59:01.702Z,20.36
2023-06-27T09:00:01.600Z,20.44
2023-06-27T09:01:01.749Z,20.55
2023-06-27T09:02:08.794Z,20.56
2023-06-27T09:03:01.615Z,20.50
2023-06-27T09:04:01.614Z,20.56
2023-06-27T09:05:01.630Z,20.65
2023-06-27T09:06:01.541Z,20.80
2023-06-27T09:07:01.563Z,20.95
2023-06-27T09:08:08.679Z,21.06
2023-06-27T09:09:01.513Z,21.05
2023-06-27T09:10:01.520Z,21.03
2023-06-27T09:11:01.462Z,20.99
2023-06-27T09:12:01.437Z,20.96
2023-06-27T09:13:01.458Z,20.88
2023-06-27T09:14:08.843Z,20.78
2023-06-27T09:15:01.502Z,20.67
2023-06-27T09:16:01.480Z,20.55
2023-06-27T09:17:01.436Z,20.41
2023-06-27T09:18:01.394Z,20.24
2023-06-27T09:19:07.670Z,20.06
2023-06-27T09:20:01.367Z,19.91
2023-06-27T09:21:01.332Z,19.81
2023-06-27T09:22:01.381Z,19.73
2023-06-27T09:23:01.344Z,19.64
2023-06-27T09:24:08.559Z,19.59
2023-06-27T09:25:01.305Z,19.51
2023-06-27T09:26:01.263Z,19.41
2023-06-27T09:27:01.359Z,19.31
2023-06-27T09:28:01.241Z,19.22
2023-06-27T09:29:01.279Z,19.14
2023-06-27T09:30:08.446Z,19.00
2023-06-27T09:31:01.286Z,18.86
2023-06-27T09:32:01.247Z,18.75
2023-06-27T09:33:01.350Z,18.65
2023-06-27T09:34:03.223Z,18.59
2023-06-27T09:35:09.494Z,18.52
2023-06-27T09:36:02.936Z,18.50
2023-06-27T09:39:01.096Z,18.59
2023-06-27T09:40:01.108Z,18.73
2023-06-27T09:41:08.283Z,18.78
2023-06-27T09:42:01.073Z,18.90
2023-06-27T09:43:01.173Z,19.02
2023-06-27T09:44:02.962Z,19.18
2023-06-27T09:45:01.749Z,19.36
2023-06-27T09:46:01.026Z,19.51
2023-06-27T09:47:08.251Z,19.63
2023-06-27T09:48:01.055Z,19.73
2023-06-27T09:49:00.985Z,19.70
2023-06-27T09:50:00.958Z,19.73
2023-06-27T09:51:00.934Z,19.84
2023-06-27T09:52:00.979Z,20.02
2023-06-27T09:53:07.256Z,20.13
2023-06-27T09:54:00.937Z,20.25
2023-06-27T09:55:00.909Z,20.39
2023-06-27T09:56:00.872Z,20.59
2023-06-27T09:57:01.155Z,20.75
2023-06-27T09:58:02.588Z,20.87
2023-06-27T10:00:00.850Z,21.11
2023-06-27T10:01:00.827Z,21.30
2023-06-27T10:02:00.828Z,21.40
2023-06-27T10:03:00.830Z,21.40
2023-06-27T10:04:00.839Z,21.30
2023-06-27T10:05:09.050Z,21.24
2023-06-27T10:06:08.986Z,21.36
2023-06-27T10:07:02.271Z,21.29
2023-06-27T10:08:00.759Z,21.43
2023-06-27T10:09:00.734Z,21.42
2023-06-27T10:10:00.727Z,21.42
2023-06-27T10:11:10.082Z,21.35
2023-06-27T10:12:00.676Z,21.22
2023-06-27T10:13:00.708Z,21.14
2023-06-27T10:14:00.681Z,21.06
2023-06-27T10:15:00.715Z,21.02
2023-06-27T10:16:00.656Z,20.97
2023-06-27T10:17:08.963Z,20.90
2023-06-27T10:18:01.588Z,20.74
2023-06-27T10:19:00.600Z,20.50
2023-06-27T10:20:00.573Z,20.29
2023-06-27T10:21:00.658Z,20.04
2023-06-27T10:22:00.548Z,19.77
2023-06-27T10:23:07.770Z,19.64
2023-06-27T10:24:00.561Z,19.44
2023-06-27T10:25:00.557Z,19.29
2023-06-27T10:26:00.577Z,19.02
2023-06-27T10:27:01.033Z,18.84
2023-06-27T10:28:00.524Z,18.74
2023-06-27T10:29:10.112Z,18.66
2023-06-27T10:30:00.451Z,18.68
2023-06-27T10:31:00.437Z,18.71
2023-06-27T10:32:00.413Z,18.81
2023-06-27T10:33:00.549Z,18.93
2023-06-27T10:34:00.398Z,19.24
2023-06-27T10:35:07.590Z,19.62
2023-06-27T10:36:00.746Z,20.00
2023-06-27T10:37:00.373Z,20.10
2023-06-27T10:38:00.376Z,20.11
2023-06-27T10:39:00.944Z,20.09
2023-06-27T10:40:07.504Z,19.95
2023-06-27T10:41:00.297Z,19.81
2023-06-27T10:42:01.903Z,19.54
2023-06-27T10:43:00.260Z,19.19
2023-06-27T10:44:00.289Z,18.84
2023-06-27T10:45:07.472Z,18.53
2023-06-27T10:46:00.237Z,18.29
2023-06-27T10:47:00.887Z,18.07
2023-06-27T10:48:00.303Z,17.85
2023-06-27T10:49:00.273Z,17.71
2023-06-27T10:50:06.433Z,17.57
2023-06-27T10:51:00.191Z,17.39
2023-06-27T10:52:00.157Z,17.27
2023-06-27T10:53:00.206Z,17.09
2023-06-27T10:54:00.170Z,16.83
2023-06-27T10:55:07.323Z,16.64
2023-06-27T10:56:00.111Z,16.56
2023-06-27T10:57:00.088Z,16.47
2023-06-27T10:58:00.128Z,16.39
2023-06-27T10:59:00.060Z,16.33
2023-06-27T11:00:00.083Z,16.29
2023-06-27T11:01:07.294Z,16.32
2023-06-27T11:02:00.134Z,16.31
2023-06-27T11:03:00.230Z,16.31
2023-06-27T11:04:00.190Z,16.36
2023-06-27T11:05:00.117Z,16.46
2023-06-27T11:06:08.780Z,16.64
2023-06-27T11:06:59.997Z,16.86
2023-06-27T11:08:00.010Z,17.23
2023-06-27T11:08:59.954Z,17.59
2023-06-27T11:09:59.945Z,17.87
2023-06-27T11:10:59.942Z,18.16
2023-06-27T11:12:06.143Z,18.74
2023-06-27T11:12:59.875Z,19.30
2023-06-27T11:13:59.915Z,19.69
2023-06-27T11:14:59.861Z,20.18
2023-06-27T11:15:59.871Z,20.67
2023-06-27T11:17:06.132Z,21.32
2023-06-27T11:17:59.889Z,21.83
2023-06-27T11:18:59.826Z,22.11
2023-06-27T11:19:59.865Z,22.51
2023-06-27T11:20:59.836Z,22.75
2023-06-27T11:22:06.016Z,23.18
2023-06-27T11:22:59.775Z,23.66
2023-06-27T11:23:59.765Z,23.98
2023-06-27T11:24:59.733Z,24.21
2023-06-27T11:25:59.701Z,24.45
2023-06-27T11:27:06.033Z,24.32
2023-06-27T11:27:59.695Z,24.50
2023-06-27T11:28:59.693Z,24.57
2023-06-27T11:29:59.682Z,24.77
2023-06-27T11:30:59.695Z,24.95
2023-06-27T11:31:59.767Z,25.26
2023-06-27T11:33:05.946Z,25.48
2023-06-27T11:33:59.639Z,25.63
2023-06-27T11:35:00.588Z,25.72
2023-06-27T11:35:59.613Z,25.78
2023-06-27T11:36:59.624Z,25.73
2023-06-27T11:37:59.980Z,26.05
2023-06-27T11:39:05.821Z,26.15
2023-06-27T11:39:59.540Z,25.96
2023-06-27T11:40:59.602Z,26.13
2023-06-27T11:41:59.530Z,26.59
2023-06-27T11:42:59.561Z,26.45
2023-06-27T11:44:05.804Z,26.70
2023-06-27T11:44:59.501Z,26.68
2023-06-27T11:45:59.494Z,26.65
2023-06-27T11:46:59.479Z,26.88
2023-06-27T11:47:59.474Z,27.18
2023-06-27T11:48:59.519Z,27.10
2023-06-27T11:50:05.679Z,27.10
2023-06-27T11:50:59.472Z,27.21
2023-06-27T11:51:59.559Z,27.35
2023-06-27T11:52:59.402Z,27.36
2023-06-27T11:53:59.383Z,27.32
2023-06-27T11:54:59.361Z,27.18
2023-06-27T11:56:20.396Z,27.11
2023-06-27T11:57:00.855Z,26.93
2023-06-27T11:57:59.322Z,27.02
2023-06-27T11:58:59.323Z,26.96
2023-06-27T11:59:59.337Z,26.80
2023-06-27T12:00:59.324Z,26.53
2023-06-27T12:02:05.523Z,26.31
2023-06-27T12:02:59.337Z,26.09
2023-06-27T12:03:59.301Z,25.81
2023-06-27T12:04:59.312Z,25.60
2023-06-27T12:05:59.332Z,25.38
2023-06-27T12:06:59.281Z,25.23
2023-06-27T12:08:05.464Z,25.18
2023-06-27T12:08:59.214Z,25.26
2023-06-27T12:09:59.194Z,25.23
2023-06-27T12:10:59.253Z,24.53
2023-06-27T12:11:59.202Z,24.54
2023-06-27T12:12:59.125Z,24.47
2023-06-27T12:14:05.469Z,24.43
2023-06-27T12:14:59.123Z,24.30
2023-06-27T12:15:59.123Z,24.20
2023-06-27T12:16:59.096Z,24.08
2023-06-27T12:17:59.170Z,23.88
2023-06-27T12:18:59.066Z,23.54
2023-06-27T12:20:05.297Z,23.09
2023-06-27T12:20:59.036Z,22.65
2023-06-27T12:21:59.067Z,21.99
2023-06-27T12:22:59.074Z,21.52
2023-06-27T12:24:00.515Z,21.27
2023-06-27T12:24:59.013Z,21.09
2023-06-27T12:26:05.242Z,20.96
2023-06-27T12:26:59.031Z,20.88
2023-06-27T12:27:58.945Z,20.77
2023-06-27T12:28:58.949Z,20.66
2023-06-27T12:29:58.950Z,20.48
2023-06-27T12:31:05.239Z,20.32
2023-06-27T12:31:58.889Z,20.13
2023-06-27T12:32:58.937Z,20.03
2023-06-27T12:33:58.890Z,19.94
2023-06-27T12:34:58.872Z,19.85
2023-06-27T12:35:58.841Z,19.81
2023-06-27T12:37:05.093Z,19.77
2023-06-27T12:37:58.851Z,19.73
2023-06-27T12:38:58.833Z,19.70
2023-06-27T12:39:58.804Z,19.66
2023-06-27T12:40:58.805Z,19.63
2023-06-27T12:42:05.080Z,19.66
2023-06-27T12:42:58.813Z,19.66
2023-06-27T12:43:58.937Z,19.69
2023-06-27T12:44:58.802Z,19.67
2023-06-27T12:45:58.701Z,19.64
2023-06-27T12:47:06.165Z,19.59
2023-06-27T12:47:58.754Z,19.56
2023-06-27T12:48:58.725Z,19.58
2023-06-27T12:49:58.676Z,19.63
2023-06-27T12:50:58.674Z,19.66
2023-06-27T12:51:58.685Z,19.63
2023-06-27T12:53:04.910Z,19.62
2023-06-27T12:53:58.624Z,19.67
2023-06-27T12:54:58.686Z,19.69
2023-06-27T12:55:58.608Z,19.70
2023-06-27T12:56:58.606Z,19.74